Time;durP1;ratioP1;P1;durP2;ratioP2;P2;SDS_P1;SDS_P2;PMS_P1;PMS_P2;Temp;Humidity;BMP_temperature;BMP_pressure;BME280_temperature;BME280_humidity;BME280_pressure;Samples;Min_cycle;Max_cycle;Signal;HPM_P1;HPM_P2
2021/05/11 00:01:05;;;;;;;7.28;2.22;;;20.10;44.60;;;;;;4998989;28;20035;-80
2021/05/11 00:03:31;;;;;;;9.23;2.22;;;20.10;44.90;;;;;;4985665;28;20514;-80
2021/05/11 00:05:58;;;;;;;8.80;2.55;;;20.10;45.10;;;;;;4980686;28;20392;-80
2021/05/11 00:08:24;;;;;;;5.70;2.20;;;20.10;45.30;;;;;;4973543;28;20030;-80
2021/05/11 00:10:49;;;;;;;5.78;2.10;;;20.10;45.50;;;;;;4992848;28;20038;-80
2021/05/11 00:13:15;;;;;;;10.02;2.38;;;20.00;45.70;;;;;;4989557;28;20026;-80
2021/05/11 00:15:41;;;;;;;8.10;2.30;;;19.90;46.00;;;;;;4989766;28;20029;-80
2021/05/11 00:18:07;;;;;;;9.25;2.20;;;19.90;46.00;;;;;;4989110;28;20039;-80
2021/05/11 00:20:33;;;;;;;7.72;2.33;;;20.00;46.10;;;;;;4976865;28;20041;-80
2021/05/11 00:22:58;;;;;;;6.68;1.70;;;19.90;46.00;;;;;;4986270;28;20030;-80
2021/05/11 00:25:24;;;;;;;10.95;2.90;;;19.90;46.10;;;;;;4984186;28;20023;-80
2021/05/11 00:27:50;;;;;;;4.38;2.15;;;19.90;45.70;;;;;;4989412;28;20125;-80
2021/05/11 00:30:16;;;;;;;5.93;1.77;;;19.90;45.60;;;;;;4974254;28;20030;-80
2021/05/11 00:32:41;;;;;;;11.48;2.65;;;19.90;45.70;;;;;;4980300;28;20023;-80
2021/05/11 00:35:07;;;;;;;8.45;1.90;;;19.80;45.80;;;;;;4989136;28;20034;-80
2021/05/11 00:37:35;;;;;;;11.27;2.20;;;19.80;45.90;;;;;;4992437;28;20027;-80
2021/05/11 00:40:02;;;;;;;8.00;1.75;;;19.80;46.20;;;;;;4986686;28;20037;-80
2021/05/11 00:42:27;;;;;;;5.38;2.03;;;19.70;46.30;;;;;;4983727;28;20077;-80
2021/05/11 00:44:53;;;;;;;6.15;2.38;;;19.70;46.30;;;;;;4987053;28;20030;-80
2021/05/11 00:47:19;;;;;;;6.20;2.28;;;19.70;46.10;;;;;;5005313;28;20026;-80
2021/05/11 00:49:45;;;;;;;7.93;1.90;;;19.70;46.30;;;;;;4994836;28;20023;-80
2021/05/11 00:52:10;;;;;;;7.50;2.20;;;19.70;46.40;;;;;;4991576;28;20488;-80
2021/05/11 00:54:36;;;;;;;8.52;2.30;;;19.60;46.40;;;;;;4982943;28;20039;-80
2021/05/11 00:57:03;;;;;;;7.70;2.40;;;19.50;46.50;;;;;;4988515;28;20031;-80
2021/05/11 00:59:31;;;;;;;7.75;2.50;;;19.50;46.90;;;;;;4982476;28;20057;-80
2021/05/11 01:01:58;;;;;;;7.70;2.10;;;19.50;47.00;;;;;;5008319;28;20415;-80
2021/05/11 01:04:25;;;;;;;4.38;2.28;;;19.50;46.80;;;;;;4996887;28;20455;-80
2021/05/11 01:06:51;;;;;;;6.28;1.88;;;19.40;46.70;;;;;;4988669;28;20022;-80
2021/05/11 01:09:17;;;;;;;7.15;2.58;;;19.30;46.80;;;;;;4985046;28;20030;-80
2021/05/11 01:11:45;;;;;;;4.00;2.20;;;19.20;46.90;;;;;;4993993;28;20080;-80
2021/05/11 01:14:12;;;;;;;6.75;2.45;;;19.20;47.00;;;;;;4999056;28;20038;-80
2021/05/11 01:16:39;;;;;;;7.97;2.08;;;19.30;47.00;;;;;;4989575;28;20033;-80
2021/05/11 01:19:14;;;;;;;6.22;2.17;;;19.30;46.80;;;;;;4986223;28;20042;-80
2021/05/11 01:22:03;;;;;;;13.13;2.63;;;19.30;46.90;;;;;;4990197;28;20027;-80
2021/05/11 01:27:01;;;;;;;7.68;2.25;;;19.30;46.80;;;;;;4974671;28;20042;-80
2021/05/11 02:23:29;;;;;;;11.68;3.78;;;18.80;47.90;;;;;;4979985;28;20093;-81
2021/05/11 02:25:59;;;;;;;9.07;2.03;;;18.80;48.00;;;;;;4989525;28;20027;-81
2021/05/11 02:28:26;;;;;;;5.35;2.60;;;18.70;48.00;;;;;;4991779;28;20526;-80
2021/05/11 02:30:52;;;;;;;6.47;2.50;;;18.60;48.00;;;;;;4975890;28;20034;-81
2021/05/11 02:33:18;;;;;;;5.78;2.30;;;18.60;48.10;;;;;;4990570;28;20523;-81
2021/05/11 02:35:44;;;;;;;6.40;2.28;;;18.60;48.00;;;;;;5006117;28;20140;-81
2021/05/11 02:38:10;;;;;;;10.40;3.17;;;18.60;47.90;;;;;;5002325;28;20498;-81
2021/05/11 02:40:36;;;;;;;10.98;3.30;;;18.50;48.10;;;;;;4990850;28;20030;-81
2021/05/11 02:43:06;;;;;;;5.35;2.63;;;18.50;48.30;;;;;;4976863;28;20023;-81
2021/05/11 02:45:33;;;;;;;6.80;2.55;;;18.60;48.30;;;;;;4976510;28;20480;-81
2021/05/11 02:47:59;;;;;;;6.88;2.70;;;18.60;48.10;;;;;;4975214;28;20058;-81
2021/05/11 02:50:27;;;;;;;5.43;2.20;;;18.50;48.30;;;;;;4991529;28;20085;-80
2021/05/11 02:52:53;;;;;;;4.93;2.20;;;18.50;48.40;;;;;;4975250;28;20030;-80
2021/05/11 02:55:20;;;;;;;8.82;2.47;;;18.40;48.60;;;;;;4983921;28;20026;-80
2021/05/11 02:57:46;;;;;;;9.60;3.17;;;18.40;48.80;;;;;;4976929;28;20045;-80
2021/05/11 03:00:14;;;;;;;6.72;2.97;;;18.40;48.80;;;;;;4978220;28;20026;-80
2021/05/11 03:02:40;;;;;;;6.00;2.53;;;18.40;48.80;;;;;;4988240;28;22034;-80
2021/05/11 03:05:07;;;;;;;8.60;2.80;;;18.50;49.00;;;;;;4980684;28;20034;-80
2021/05/11 03:07:33;;;;;;;8.18;3.22;;;18.40;49.00;;;;;;4984276;28;20030;-80
2021/05/11 03:09:59;;;;;;;10.05;3.70;;;18.40;48.90;;;;;;4990971;28;20030;-80
2021/05/11 03:12:24;;;;;;;13.43;2.10;;;18.30;49.00;;;;;;4990963;28;20074;-80
2021/05/11 03:14:51;;;;;;;8.77;2.40;;;18.30;49.10;;;;;;4989264;28;20030;-80
2021/05/11 03:17:17;;;;;;;6.43;2.13;;;18.30;49.10;;;;;;4980573;28;20564;-80
2021/05/11 03:19:43;;;;;;;6.20;2.70;;;18.20;49.30;;;;;;4980540;28;20091;-80
2021/05/11 03:22:08;;;;;;;7.23;2.63;;;18.20;49.60;;;;;;4998509;28;20081;-81
2021/05/11 03:24:39;;;;;;;5.37;2.40;;;18.20;49.70;;;;;;4999903;28;20460;-79
2021/05/11 03:27:05;;;;;;;7.18;3.08;;;18.20;49.80;;;;;;4981938;28;20089;-80
2021/05/11 03:29:31;;;;;;;6.35;2.97;;;18.10;49.60;;;;;;4975921;28;20045;-80
2021/05/11 03:31:57;;;;;;;7.25;2.42;;;18.20;49.40;;;;;;4983971;28;20061;-80
2021/05/11 03:34:22;;;;;;;7.47;2.50;;;18.10;49.40;;;;;;4992452;28;20515;-81
2021/05/11 03:36:48;;;;;;;9.27;4.75;;;18.10;49.70;;;;;;4977735;28;20344;-80
2021/05/11 03:39:14;;;;;;;8.93;4.93;;;18.10;50.00;;;;;;4980732;28;20049;-81
2021/05/11 03:41:44;;;;;;;7.30;2.85;;;18.10;49.90;;;;;;5003958;28;20030;-80
2021/05/11 03:44:13;;;;;;;9.98;2.72;;;18.10;49.80;;;;;;4975834;28;20015;-80
2021/05/11 03:46:39;;;;;;;6.72;1.92;;;18.20;49.50;;;;;;4991455;28;20046;-81
2021/05/11 03:49:06;;;;;;;4.25;1.88;;;18.20;49.00;;;;;;4986733;28;20130;-80
2021/05/11 03:51:34;;;;;;;5.53;2.00;;;18.30;49.00;;;;;;4982002;28;20027;-81
2021/05/11 03:54:00;;;;;;;7.53;2.55;;;18.20;49.40;;;;;;4996962;28;20027;-81
2021/05/11 03:56:27;;;;;;;3.93;1.93;;;18.30;48.90;;;;;;4993622;28;20101;-81
2021/05/11 03:58:53;;;;;;;4.85;1.83;;;18.30;49.20;;;;;;4993240;28;20558;-81
2021/05/11 04:01:19;;;;;;;4.53;2.17;;;18.20;49.50;;;;;;5001361;28;20097;-81
2021/05/11 04:03:45;;;;;;;11.43;2.45;;;18.20;49.70;;;;;;4977979;28;20022;-80
2021/05/11 04:06:11;;;;;;;4.72;2.17;;;18.20;49.70;;;;;;4994451;28;20166;-80
2021/05/11 04:18:40;;;;;;;10.15;4.43;;;18.30;50.50;;;;;;4977840;28;20038;-80
2021/05/11 04:21:06;;;;;;;13.38;4.43;;;18.20;50.80;;;;;;4977460;28;20403;-80
2021/05/11 04:23:32;;;;;;;10.15;3.80;;;18.20;51.20;;;;;;4978996;28;20033;-80
2021/05/11 04:25:57;;;;;;;6.63;3.80;;;18.10;51.20;;;;;;4980376;28;20031;-80
2021/05/11 04:28:23;;;;;;;7.20;3.50;;;18.10;51.10;;;;;;4989806;28;20484;-80
2021/05/11 04:30:49;;;;;;;7.70;3.40;;;18.10;51.30;;;;;;4989469;28;20038;-80
2021/05/11 04:33:14;;;;;;;11.37;3.63;;;18.10;51.40;;;;;;4974956;28;20057;-80
2021/05/11 04:35:40;;;;;;;11.70;5.10;;;18.00;51.70;;;;;;4979023;28;20050;-80
2021/05/11 04:38:06;;;;;;;12.07;4.95;;;17.90;51.70;;;;;;5009176;28;20491;-80
2021/05/11 04:40:32;;;;;;;12.38;4.95;;;18.00;51.70;;;;;;5008924;28;20030;-80
2021/05/11 04:42:57;;;;;;;11.10;3.87;;;18.00;51.80;;;;;;5008727;28;20506;-80
2021/05/11 04:45:27;;;;;;;13.20;4.85;;;18.00;52.50;;;;;;5007783;28;20018;-80
2021/05/11 04:47:55;;;;;;;12.90;4.27;;;18.10;51.90;;;;;;5001896;28;20480;-81
2021/05/11 04:50:23;;;;;;;14.52;4.32;;;18.10;51.60;;;;;;4989056;28;20033;-80
2021/05/11 04:52:49;;;;;;;7.87;3.80;;;18.10;51.20;;;;;;4984173;28;20080;-80
2021/05/11 04:55:17;;;;;;;10.38;3.83;;;18.20;51.20;;;;;;5001497;28;20026;-80
2021/05/11 04:57:43;;;;;;;13.88;4.07;;;18.30;51.10;;;;;;5008233;28;20023;-80
2021/05/11 05:00:11;;;;;;;8.40;3.58;;;18.20;50.90;;;;;;4981679;28;20153;-80
2021/05/11 05:02:42;;;;;;;4.88;3.03;;;18.30;51.00;;;;;;4983724;28;20117;-80
2021/05/11 05:05:09;;;;;;;10.77;3.15;;;18.20;50.90;;;;;;4981089;28;20118;-81
2021/05/11 05:07:38;;;;;;;8.75;3.58;;;18.20;51.00;;;;;;4988863;28;20027;-80
2021/05/11 05:10:05;;;;;;;6.18;3.50;;;18.20;51.00;;;;;;4993320;28;20025;-80
2021/05/11 05:12:31;;;;;;;11.57;3.70;;;18.20;50.90;;;;;;4998733;28;20045;-80
2021/05/11 05:14:57;;;;;;;8.40;3.55;;;18.10;50.90;;;;;;4990105;28;20027;-80
2021/05/11 05:17:24;;;;;;;12.40;3.67;;;18.20;51.10;;;;;;4975805;28;20037;-80
2021/05/11 05:19:49;;;;;;;9.43;3.33;;;18.20;51.40;;;;;;4990615;28;20034;-80
2021/05/11 05:22:16;;;;;;;7.85;2.60;;;18.10;51.90;;;;;;4976859;28;20085;-80
2021/05/11 05:24:44;;;;;;;5.95;2.83;;;18.10;51.70;;;;;;4990982;28;20553;-80
2021/05/11 05:29:38;;;;;;;6.32;2.30;;;18.10;52.00;;;;;;4980549;28;20023;-80
2021/05/11 05:32:04;;;;;;;7.25;2.38;;;18.20;51.50;;;;;;4993810;28;20035;-80
2021/05/11 05:34:30;;;;;;;11.68;3.00;;;18.20;51.50;;;;;;4986603;28;20041;-80
2021/05/11 05:36:57;;;;;;;23.75;3.65;;;18.30;51.50;;;;;;5007472;28;20034;-80
2021/05/11 05:39:29;;;;;;;10.02;3.58;;;18.30;51.40;;;;;;4996332;28;20045;-80
2021/05/11 05:41:55;;;;;;;8.52;3.08;;;18.40;51.10;;;;;;4995379;28;20035;-80
2021/05/11 05:44:20;;;;;;;14.52;3.50;;;18.40;51.10;;;;;;4992692;28;20034;-80
2021/05/11 05:46:46;;;;;;;10.02;3.60;;;18.40;51.20;;;;;;4986810;28;20033;-80
2021/05/11 05:49:12;;;;;;;10.93;3.50;;;18.40;51.30;;;;;;4980148;28;20465;-80
2021/05/11 05:51:38;;;;;;;14.77;3.95;;;18.40;51.40;;;;;;4994009;28;20121;-80
2021/05/11 05:54:04;;;;;;;7.95;3.47;;;18.40;51.40;;;;;;4993205;28;20038;-80
2021/05/11 05:56:29;;;;;;;10.50;3.97;;;18.50;51.60;;;;;;4996521;28;20092;-80
2021/05/11 05:58:55;;;;;;;14.20;4.18;;;18.50;51.70;;;;;;5004409;28;20034;-80
2021/05/11 06:01:27;;;;;;;11.50;4.05;;;18.50;51.80;;;;;;4986204;28;20040;-80
2021/05/11 06:04:21;;;;;;;12.45;4.68;;;18.60;52.00;;;;;;4983908;28;20029;-80
2021/05/11 06:06:48;;;;;;;19.05;4.78;;;18.60;52.00;;;;;;4982026;28;20497;-80
2021/05/11 06:09:21;;;;;;;14.88;4.88;;;18.60;51.80;;;;;;4999605;28;20391;-80
2021/05/11 06:11:50;;;;;;;13.65;4.82;;;18.70;52.50;;;;;;4992399;28;20034;-80
2021/05/11 06:14:47;;;;;;;13.77;5.63;;;18.70;52.00;;;;;;4986155;28;20026;-80
2021/05/11 06:19:40;;;;;;;12.48;5.60;;;18.70;51.90;;;;;;4979149;28;20031;-81
2021/05/11 06:22:06;;;;;;;14.60;5.22;;;18.80;52.10;;;;;;4976675;28;20058;-80
2021/05/11 06:24:32;;;;;;;11.70;4.70;;;18.70;52.20;;;;;;4993049;28;20049;-81
2021/05/11 06:26:57;;;;;;;16.17;5.10;;;18.80;52.40;;;;;;4990613;28;20142;-80
2021/05/11 06:29:25;;;;;;;14.63;5.28;;;18.80;52.50;;;;;;4994093;28;20026;-80
2021/05/11 06:31:51;;;;;;;16.10;4.88;;;18.80;52.60;;;;;;5003105;28;20031;-80
2021/05/11 06:34:17;;;;;;;7.50;4.13;;;18.80;52.50;;;;;;4992657;28;20398;-81
2021/05/11 06:36:43;;;;;;;11.95;4.32;;;18.90;52.30;;;;;;4978977;28;20026;-81
2021/05/11 06:39:10;;;;;;;13.00;5.05;;;18.90;52.10;;;;;;4980432;28;20048;-80
2021/05/11 06:41:40;;;;;;;19.83;5.10;;;19.00;52.60;;;;;;4996450;28;20030;-80
2021/05/11 06:44:08;;;;;;;12.15;5.40;;;19.00;53.10;;;;;;4995922;28;20090;-81
2021/05/11 06:54:37;;;;;;;22.33;7.93;;;19.00;53.90;;;;;;4990912;28;20037;-81
2021/05/11 06:57:03;;;;;;;15.27;6.28;;;19.10;54.30;;;;;;5001038;28;20026;-80
2021/05/11 06:59:29;;;;;;;12.50;5.35;;;19.20;54.20;;;;;;4994720;28;20116;-81
2021/05/11 07:01:55;;;;;;;10.23;4.93;;;19.30;54.10;;;;;;4991816;28;20525;-81
2021/05/11 07:04:21;;;;;;;20.17;5.35;;;19.30;54.00;;;;;;5010638;28;20113;-81
2021/05/11 07:06:47;;;;;;;13.88;5.40;;;19.40;53.90;;;;;;4993199;28;20093;-81
2021/05/11 07:09:16;;;;;;;14.15;5.38;;;19.40;53.90;;;;;;5011057;28;20128;-81
2021/05/11 07:14:12;;;;;;;11.98;4.13;;;19.60;54.00;;;;;;4991004;28;20061;-81
2021/05/11 07:16:38;;;;;;;12.60;4.60;;;19.60;54.70;;;;;;4975582;28;20034;-81
2021/05/11 07:19:03;;;;;;;19.25;5.03;;;19.60;54.90;;;;;;4980580;28;20105;-80
2021/05/11 07:21:29;;;;;;;13.18;5.15;;;19.60;54.80;;;;;;4980254;28;20019;-81
2021/05/11 07:23:57;;;;;;;12.85;4.25;;;19.70;54.50;;;;;;4999207;28;20030;-80
2021/05/11 07:26:27;;;;;;;13.85;4.55;;;19.70;54.30;;;;;;4997496;28;20030;-80
2021/05/11 07:31:25;;;;;;;;;;;19.80;53.50;;;;;;4978986;28;20045;-80
2021/05/11 07:33:53;;;;;;;14.05;4.13;;;19.80;53.20;;;;;;4974636;28;19910;-80
2021/05/11 07:36:19;;;;;;;11.07;4.43;;;19.90;52.90;;;;;;4975770;28;20058;-80
2021/05/11 07:38:45;;;;;;;12.32;4.22;;;20.00;53.10;;;;;;4977681;28;20046;-80
2021/05/11 07:41:13;;;;;;;11.35;3.58;;;20.10;52.90;;;;;;4980026;28;20034;-80
2021/05/11 07:43:40;;;;;;;10.48;4.03;;;20.20;52.90;;;;;;4992306;28;20058;-80
2021/05/11 07:46:20;;;;;;;7.45;2.95;;;20.30;53.10;;;;;;4987803;28;20027;-80
2021/05/11 08:15:31;;;;;;;9.85;3.55;;;22.20;50.30;;;;;;4975461;28;20038;-81
2021/05/11 08:18:07;;;;;;;7.47;2.85;;;22.40;49.20;;;;;;4991412;28;20582;-81
2021/05/11 08:21:47;;;;;;;6.95;2.03;;;22.60;48.40;;;;;;5004273;28;20475;-81
2021/05/11 08:28:43;;;;;;;7.63;1.83;;;23.00;46.40;;;;;;4975200;28;20065;-80
2021/05/11 08:31:09;;;;;;;4.25;1.40;;;23.20;46.70;;;;;;4986889;28;20042;-81
2021/05/11 08:33:35;;;;;;;6.47;1.38;;;23.40;46.10;;;;;;4994744;28;20061;-81
2021/05/11 08:36:01;;;;;;;4.40;0.60;;;23.50;44.50;;;;;;5007336;28;20031;-80
2021/05/11 08:38:27;;;;;;;4.47;0.73;;;23.60;43.10;;;;;;4993144;28;20046;-81
2021/05/11 08:40:53;;;;;;;1.02;0.52;;;23.80;42.20;;;;;;4979441;28;20089;-81
2021/05/11 08:43:29;;;;;;;2.22;0.85;;;23.90;41.50;;;;;;4989786;28;20479;-81
2021/05/11 08:45:59;;;;;;;3.13;0.85;;;24.10;40.60;;;;;;4990219;28;20051;-81
2021/05/11 08:48:25;;;;;;;5.40;0.80;;;24.00;40.50;;;;;;4976202;28;20070;-81
2021/05/11 08:51:26;;;;;;;3.03;0.38;;;24.00;40.00;;;;;;4998178;28;20038;-81
2021/05/11 09:04:39;;;;;;;5.22;0.70;;;24.30;38.90;;;;;;4979709;28;20033;-81
2021/05/11 09:32:13;;;;;;;7.22;0.50;;;24.70;33.60;;;;;;4988560;28;20038;-81
2021/05/11 10:49:29;;;;;;;2.22;0.30;;;26.00;29.80;;;;;;4993095;28;20056;-82
2021/05/11 10:55:12;;;;;;;1.45;0.28;;;26.40;29.90;;;;;;4995702;28;20487;-82
2021/05/11 10:57:57;;;;;;;7.40;0.65;;;26.50;29.70;;;;;;4994651;28;20031;-82
2021/05/11 11:03:23;;;;;;;1.13;0.30;;;26.60;29.20;;;;;;4996602;28;20122;-82
2021/05/11 11:05:55;;;;;;;3.45;0.30;;;26.60;29.10;;;;;;4990545;28;20027;-82
2021/05/11 11:08:40;;;;;;;2.88;0.30;;;26.70;29.70;;;;;;5007042;28;20376;-80
2021/05/11 11:11:16;;;;;;;2.03;0.30;;;26.70;29.50;;;;;;5003057;28;20026;-80
2021/05/11 11:13:53;;;;;;;0.35;0.10;;;26.70;29.40;;;;;;4991231;28;20062;-80
2021/05/11 11:16:20;;;;;;;3.78;0.38;;;26.60;29.40;;;;;;4990969;28;20037;-81
2021/05/11 11:18:47;;;;;;;7.38;0.68;;;26.50;29.50;;;;;;4997037;28;20444;-81
2021/05/11 11:23:44;;;;;;;2.45;0.20;;;26.40;29.90;;;;;;4985981;28;20416;-80
2021/05/11 11:26:13;;;;;;;0.88;0.10;;;26.40;29.90;;;;;;5009766;28;20026;-81
2021/05/11 11:28:39;;;;;;;2.22;0.20;;;26.30;29.80;;;;;;4994112;28;20064;-81
2021/05/11 11:31:21;;;;;;;3.78;0.20;;;26.30;29.90;;;;;;4990154;28;20058;-81
2021/05/11 11:33:47;;;;;;;0.10;0.10;;;26.40;30.00;;;;;;4991455;28;20077;-80
2021/05/11 11:36:33;;;;;;;2.00;0.20;;;26.50;30.40;;;;;;4990929;28;20035;-79
2021/05/11 11:39:01;;;;;;;2.28;0.50;;;26.60;30.30;;;;;;4983691;28;20130;-82
2021/05/11 11:41:28;;;;;;;3.67;0.30;;;26.40;30.40;;;;;;4990910;28;20035;-82
2021/05/11 11:43:54;;;;;;;2.63;0.55;;;26.20;30.50;;;;;;4980171;28;20030;-81
2021/05/11 11:46:24;;;;;;;1.73;0.20;;;26.20;30.90;;;;;;4990766;28;20019;-81
2021/05/11 11:49:03;;;;;;;6.10;0.32;;;26.30;31.00;;;;;;4992855;28;20027;-81
2021/05/11 11:51:32;;;;;;;3.90;0.22;;;26.30;31.00;;;;;;4993144;28;20039;-81
2021/05/11 11:54:37;;;;;;;6.93;0.50;;;26.30;31.10;;;;;;5008302;28;20558;-81
2021/05/11 11:59:35;;;;;;;1.60;0.30;;;26.40;30.90;;;;;;4986288;28;20566;-81
2021/05/11 12:02:03;;;;;;;1.58;0.30;;;26.40;30.70;;;;;;4991261;28;20023;-82
2021/05/11 12:04:33;;;;;;;3.75;0.30;;;26.40;30.70;;;;;;4984755;28;20030;-81
2021/05/11 12:07:08;;;;;;;3.47;0.28;;;26.30;30.50;;;;;;4996192;28;20036;-82
2021/05/11 12:09:34;;;;;;;0.88;0.20;;;26.40;30.80;;;;;;4993533;28;20122;-81
2021/05/11 12:12:00;;;;;;;1.88;0.30;;;26.30;30.80;;;;;;5009762;28;20064;-81
2021/05/11 12:14:27;;;;;;;5.65;0.30;;;26.30;31.00;;;;;;5009647;28;20029;-81
2021/05/11 12:16:53;;;;;;;2.47;0.30;;;26.20;31.10;;;;;;5002727;28;20072;-82
2021/05/11 12:19:23;;;;;;;6.05;0.52;;;26.10;31.30;;;;;;5001458;28;20121;-80
2021/05/11 12:22:04;;;;;;;1.25;0.43;;;26.10;31.30;;;;;;4981775;28;20038;-81
2021/05/11 12:24:34;;;;;;;3.33;0.30;;;26.00;31.40;;;;;;4989789;28;20023;-81
2021/05/11 12:27:22;;;;;;;0.63;0.17;;;26.10;31.90;;;;;;4975710;28;20027;-80
2021/05/11 12:30:01;;;;;;;3.90;0.28;;;26.30;31.60;;;;;;4990855;28;20054;-81
2021/05/11 12:32:28;;;;;;;4.32;0.30;;;26.30;31.60;;;;;;4986388;28;20046;-82
2021/05/11 12:35:06;;;;;;;3.90;0.28;;;26.30;31.50;;;;;;5009495;28;20037;-81
2021/05/11 12:37:48;;;;;;;4.70;0.30;;;26.30;31.60;;;;;;4992544;28;20041;-81
2021/05/11 12:40:33;;;;;;;3.95;0.70;;;26.30;31.20;;;;;;5007428;28;20105;-81
2021/05/11 12:43:02;;;;;;;1.95;0.20;;;26.30;31.10;;;;;;4974087;28;20043;-81
2021/05/11 12:45:38;;;;;;;3.00;0.52;;;26.30;31.00;;;;;;4977704;28;20046;-81
2021/05/11 12:48:05;;;;;;;2.92;0.28;;;26.30;31.30;;;;;;4993522;28;20557;-81
2021/05/11 12:50:38;;;;;;;2.33;0.20;;;26.30;31.20;;;;;;4992522;28;20065;-81
2021/05/11 12:53:25;;;;;;;0.45;0.25;;;26.30;30.70;;;;;;4997413;28;20399;-82
2021/05/11 12:56:19;;;;;;;0.95;0.30;;;26.50;30.70;;;;;;5006584;28;20038;-81
2021/05/11 13:01:45;;;;;;;0.52;0.20;;;26.60;30.20;;;;;;4983886;28;20033;-81
2021/05/11 13:20:54;;;;;;;0.52;0.20;;;26.10;30.30;;;;;;4978006;28;20128;-81
2021/05/11 13:31:12;;;;;;;0.20;0.10;;;25.70;30.40;;;;;;4985034;28;20038;-82
2021/05/11 13:36:22;;;;;;;1.52;0.30;;;25.30;30.60;;;;;;4987939;28;20439;-81
2021/05/11 13:38:48;;;;;;;0.15;0.10;;;25.30;30.90;;;;;;4973913;28;20058;-82
2021/05/11 13:41:14;;;;;;;0.30;0.30;;;25.40;30.90;;;;;;4974907;28;20031;-81
2021/05/11 13:43:39;;;;;;;1.88;0.20;;;25.30;31.00;;;;;;4998412;28;20023;-81
2021/05/11 13:46:05;;;;;;;0.28;0.10;;;25.30;31.20;;;;;;4989843;28;20029;-81
2021/05/11 13:48:39;;;;;;;3.13;0.40;;;25.30;31.10;;;;;;4993453;28;20030;-81
2021/05/11 13:53:36;;;;;;;0.50;0.15;;;25.20;31.30;;;;;;4981135;28;20479;-82
2021/05/11 13:56:29;;;;;;;0.20;0.20;;;25.10;31.40;;;;;;4976624;28;20045;-82
2021/05/11 14:04:07;;;;;;;1.15;0.50;;;25.00;31.20;;;;;;4983976;28;20357;-82
2021/05/11 14:06:36;;;;;;;1.25;0.20;;;25.10;31.30;;;;;;4992506;28;20023;-82
2021/05/11 14:09:03;;;;;;;0.10;0.10;;;25.10;31.40;;;;;;5003855;28;20042;-82
2021/05/11 14:11:31;;;;;;;0.15;0.15;;;25.00;31.40;;;;;;4995255;28;20092;-82
2021/05/11 14:13:57;;;;;;;8.60;0.40;;;24.90;31.70;;;;;;4996877;28;20023;-82
2021/05/11 14:16:23;;;;;;;2.08;0.10;;;24.90;31.80;;;;;;5011980;28;20049;-82
2021/05/11 14:18:48;;;;;;;0.55;0.17;;;24.90;31.90;;;;;;5007828;28;20034;-82
2021/05/11 14:21:14;;;;;;;0.13;0.13;;;25.00;31.80;;;;;;4977246;28;20102;-82
2021/05/11 14:23:41;;;;;;;0.22;0.10;;;24.90;31.90;;;;;;4991970;28;20734;-82
2021/05/11 14:26:07;;;;;;;0.88;0.20;;;24.90;32.00;;;;;;4986098;28;20058;-82
2021/05/11 14:28:32;;;;;;;2.33;0.20;;;24.90;32.20;;;;;;4996464;28;20108;-82
2021/05/11 14:30:58;;;;;;;2.22;0.20;;;24.90;31.90;;;;;;4995280;28;20088;-82
2021/05/11 14:33:24;;;;;;;2.38;0.80;;;25.00;31.90;;;;;;4995192;28;20030;-81
2021/05/11 14:35:49;;;;;;;2.70;0.20;;;25.10;31.80;;;;;;4995422;28;20030;-82
2021/05/11 14:38:15;;;;;;;0.47;0.20;;;25.20;31.80;;;;;;4993406;28;20034;-82
2021/05/11 14:40:41;;;;;;;0.25;0.10;;;25.30;31.80;;;;;;5011757;28;20491;-82
2021/05/11 14:43:06;;;;;;;0.63;0.13;;;25.10;31.70;;;;;;5006491;28;20026;-81
2021/05/11 14:45:32;;;;;;;0.57;0.30;;;24.90;31.90;;;;;;5007263;28;20018;-82
2021/05/11 14:47:58;;;;;;;5.63;0.30;;;24.90;32.30;;;;;;4988387;28;20027;-82
2021/05/11 14:50:24;;;;;;;4.13;0.52;;;24.80;32.30;;;;;;4994163;28;20031;-82
2021/05/11 14:52:55;;;;;;;3.63;0.30;;;24.70;32.40;;;;;;5002438;28;20509;-82
2021/05/11 14:55:25;;;;;;;0.47;0.28;;;24.60;32.50;;;;;;5003107;28;20041;-82
2021/05/11 14:57:55;;;;;;;1.00;0.20;;;24.50;32.50;;;;;;4991417;28;20066;-82
2021/05/11 15:00:22;;;;;;;3.13;0.20;;;24.50;32.60;;;;;;4992722;28;20150;-82
2021/05/11 15:02:48;;;;;;;4.47;0.10;;;24.40;32.90;;;;;;5002727;28;20031;-82
2021/05/11 15:05:14;;;;;;;4.28;0.28;;;24.40;33.00;;;;;;5011172;28;20026;-82
2021/05/11 15:07:39;;;;;;;1.25;0.38;;;24.40;33.00;;;;;;5002939;28;20396;-82
2021/05/11 15:10:06;;;;;;;2.00;0.20;;;24.30;33.20;;;;;;4991267;28;20472;-82
2021/05/11 15:12:34;;;;;;;1.25;0.20;;;24.30;33.00;;;;;;4991470;28;20081;-84
2021/05/11 15:14:59;;;;;;;0.85;0.30;;;24.30;33.00;;;;;;4988710;28;20045;-80
2021/05/11 15:19:54;;;;;;;0.75;0.20;;;24.10;33.30;;;;;;4981117;28;20077;-80
2021/05/11 15:22:21;;;;;;;0.85;0.10;;;24.10;33.50;;;;;;4994836;28;20031;-80
2021/05/11 15:24:48;;;;;;;0.30;0.10;;;24.10;33.70;;;;;;4993908;28;20038;-80
2021/05/11 15:27:14;;;;;;;0.68;0.10;;;24.10;33.70;;;;;;4999788;28;20027;-80
2021/05/11 15:29:40;;;;;;;0.20;0.10;;;24.10;33.70;;;;;;4985189;28;20108;-80
2021/05/11 15:32:56;;;;;;;0.98;0.20;;;24.10;33.60;;;;;;4984074;28;20457;-81
2021/05/11 15:35:28;;;;;;;0.63;0.22;;;24.00;33.70;;;;;;4974851;28;20030;-80
2021/05/11 15:37:58;;;;;;;1.45;0.30;;;24.00;33.90;;;;;;4990925;28;20027;-81
2021/05/11 15:40:33;;;;;;;4.15;0.63;;;24.00;33.90;;;;;;4985865;28;20092;-81
2021/05/11 15:42:59;;;;;;;1.08;0.22;;;23.90;33.90;;;;;;5001030;28;20034;-81
2021/05/11 15:45:26;;;;;;;0.70;0.13;;;23.70;33.80;;;;;;4992135;28;20488;-81
2021/05/11 15:47:56;;;;;;;1.73;0.20;;;23.70;34.00;;;;;;4996708;28;20084;-81
2021/05/11 15:50:29;;;;;;;1.83;0.10;;;23.60;34.10;;;;;;4977539;28;20696;-81
2021/05/11 15:53:00;;;;;;;0.22;0.17;;;23.50;34.00;;;;;;4990427;28;20030;-81
2021/05/11 15:55:27;;;;;;;1.85;0.10;;;23.30;34.30;;;;;;4990001;28;20015;-81
2021/05/11 15:57:53;;;;;;;0.40;0.20;;;23.30;34.50;;;;;;4983598;28;20026;-81
2021/05/11 16:00:19;;;;;;;0.70;0.38;;;23.30;34.50;;;;;;4994141;28;20041;-82
2021/05/11 16:03:03;;;;;;;2.55;0.60;;;23.30;34.60;;;;;;4991950;28;20022;-81
2021/05/11 16:05:30;;;;;;;0.70;0.20;;;23.30;34.60;;;;;;4993649;28;20034;-81
2021/05/11 16:07:57;;;;;;;0.43;0.10;;;23.30;35.20;;;;;;4997853;28;20413;-81
2021/05/11 16:10:23;;;;;;;1.90;0.30;;;23.20;34.70;;;;;;4985946;28;20041;-82
2021/05/11 16:12:57;;;;;;;0.52;0.25;;;23.20;34.80;;;;;;4978012;28;20034;-81
2021/05/11 16:15:23;;;;;;;1.23;0.20;;;23.10;34.80;;;;;;4979942;28;20471;-81
2021/05/11 16:17:50;;;;;;;1.02;0.20;;;23.20;35.00;;;;;;4989206;28;20038;-81
2021/05/11 16:20:16;;;;;;;1.60;0.20;;;23.10;35.00;;;;;;4976837;28;20023;-81
2021/05/11 16:22:42;;;;;;;1.63;0.90;;;23.10;35.10;;;;;;4982538;28;20549;-81
2021/05/11 16:25:10;;;;;;;0.38;0.20;;;23.10;35.10;;;;;;4990237;28;20034;-81
2021/05/11 16:27:38;;;;;;;1.48;0.22;;;23.00;35.20;;;;;;4987526;28;20023;-81
2021/05/11 16:30:06;;;;;;;1.65;0.10;;;22.90;35.40;;;;;;5000448;28;20027;-81
2021/05/11 16:32:32;;;;;;;1.00;0.20;;;22.80;35.30;;;;;;4984621;28;20067;-81
2021/05/11 16:34:58;;;;;;;1.60;0.20;;;22.90;35.50;;;;;;4978370;28;20119;-82
2021/05/11 16:37:24;;;;;;;0.57;0.10;;;22.90;35.60;;;;;;4994027;28;20466;-82
2021/05/11 16:39:49;;;;;;;0.68;0.10;;;22.80;35.50;;;;;;4973105;28;20145;-82
2021/05/11 16:42:16;;;;;;;1.40;0.30;;;22.80;35.60;;;;;;4998398;28;20030;-83
2021/05/11 16:44:41;;;;;;;0.13;0.10;;;22.90;35.70;;;;;;4977849;28;20447;-83
2021/05/11 16:47:07;;;;;;;1.05;0.17;;;22.90;35.70;;;;;;4983969;28;20102;-83
2021/05/11 16:49:33;;;;;;;2.72;0.20;;;22.90;35.70;;;;;;4973015;28;20447;-83
2021/05/11 16:51:58;;;;;;;0.30;0.10;;;22.80;35.90;;;;;;4977242;28;20034;-83
2021/05/11 16:54:24;;;;;;;0.40;0.10;;;22.70;35.80;;;;;;4980105;28;20030;-80
2021/05/11 16:56:50;;;;;;;0.63;0.22;;;22.60;35.90;;;;;;4990253;28;20058;-80
2021/05/11 16:59:18;;;;;;;0.32;0.20;;;22.60;36.00;;;;;;4980036;28;20026;-80
2021/05/11 17:01:44;;;;;;;0.52;0.10;;;22.50;36.20;;;;;;5003316;28;20073;-80
2021/05/11 17:04:10;;;;;;;0.50;0.10;;;22.50;36.50;;;;;;5001971;28;20595;-80
2021/05/11 17:06:35;;;;;;;1.02;0.10;;;22.40;36.40;;;;;;4998089;28;20027;-79
2021/05/11 17:09:04;;;;;;;0.10;0.10;;;22.30;36.30;;;;;;4991998;28;20045;-79
2021/05/11 17:11:32;;;;;;;0.50;0.20;;;22.30;36.40;;;;;;4991348;28;20031;-79
2021/05/11 17:14:06;;;;;;;0.43;0.15;;;22.20;36.40;;;;;;4988627;28;20054;-78
2021/05/11 17:16:32;;;;;;;0.10;0.10;;;22.20;36.60;;;;;;4987106;28;20029;-79
2021/05/11 17:18:58;;;;;;;0.15;0.10;;;22.00;36.70;;;;;;4992038;28;20101;-78
2021/05/11 17:21:27;;;;;;;0.20;0.10;;;22.10;36.80;;;;;;4986949;28;20086;-78
2021/05/11 17:23:53;;;;;;;0.40;0.40;;;22.10;36.70;;;;;;4988237;28;20054;-78
2021/05/11 17:26:20;;;;;;;2.55;0.10;;;21.90;36.60;;;;;;4992957;28;20057;-78
2021/05/11 17:28:47;;;;;;;0.30;0.10;;;21.70;36.80;;;;;;4989553;28;20033;-78
2021/05/11 17:31:13;;;;;;;0.57;0.10;;;21.70;37.10;;;;;;4981701;28;20109;-78